Time;durP1;ratioP1;P1;durP2;ratioP2;P2;SDS_P1;SDS_P2;PMS_P1;PMS_P2;Temp;Humidity;BMP_temperature;BMP_pressure;BME280_temperature;BME280_humidity;BME280_pressure;Samples;Min_cycle;Max_cycle;Signal;HPM_P1;HPM_P2
2023/11/21 00:01:26;;;;;;;14.38;8.25;;;;;;;9.04;100.00;99737.84;5112837;28;20051;-42
2023/11/21 00:03:55;;;;;;;15.05;8.23;;;;;;;9.04;100.00;99734.34;5112915;28;20094;-42
2023/11/21 00:06:23;;;;;;;12.75;8.00;;;;;;;9.07;100.00;99743.00;5112802;28;20071;-42
2023/11/21 00:08:52;;;;;;;17.38;8.80;;;;;;;9.14;100.00;99744.31;5112801;28;20109;-42
2023/11/21 00:11:21;;;;;;;17.95;8.48;;;;;;;9.12;100.00;99743.56;5112744;28;20048;-42
2023/11/21 00:13:49;;;;;;;12.68;7.65;;;;;;;9.01;100.00;99743.38;5112805;28;20080;-42
2023/11/21 00:16:19;;;;;;;14.05;7.63;;;;;;;8.98;100.00;99740.91;5112665;28;20040;-46
2023/11/21 00:18:48;;;;;;;18.30;8.38;;;;;;;8.93;100.00;99729.69;5112969;28;20055;-48
2023/11/21 00:21:16;;;;;;;17.55;8.68;;;;;;;8.97;100.00;99738.31;5112598;28;20051;-42
2023/11/21 00:23:44;;;;;;;17.63;8.70;;;;;;;8.94;100.00;99731.38;5113480;28;20047;-42
2023/11/21 00:26:12;;;;;;;17.15;8.07;;;;;;;8.93;100.00;99735.00;5113747;28;20055;-43
2023/11/21 00:28:42;;;;;;;14.13;7.32;;;;;;;8.92;100.00;99735.94;5113169;28;20438;-43
2023/11/21 00:31:10;;;;;;;13.88;7.95;;;;;;;8.92;100.00;99738.59;5112598;28;20077;-42
2023/11/21 00:33:40;;;;;;;15.00;7.68;;;;;;;8.97;100.00;99746.28;5112227;28;20044;-41
2023/11/21 00:36:09;;;;;;;14.73;7.43;;;;;;;8.94;100.00;99752.66;5112670;28;20100;-42
2023/11/21 00:38:39;;;;;;;14.27;7.55;;;;;;;8.89;100.00;99752.09;5112372;28;20040;-43
2023/11/21 00:41:08;;;;;;;16.05;7.45;;;;;;;8.91;100.00;99752.84;5112310;28;20083;-42
2023/11/21 00:43:36;;;;;;;14.60;8.07;;;;;;;8.92;100.00;99759.88;5112261;28;20055;-42
2023/11/21 00:46:07;;;;;;;14.25;7.45;;;;;;;8.91;100.00;99766.16;5112085;28;20138;-43
2023/11/21 00:48:35;;;;;;;14.18;7.45;;;;;;;8.86;100.00;99768.22;5112117;28;20425;-42
2023/11/21 00:51:06;;;;;;;18.63;8.23;;;;;;;8.78;100.00;99762.50;5111997;28;20519;-43
2023/11/21 00:53:34;;;;;;;13.93;7.80;;;;;;;8.83;100.00;99763.09;5111862;28;20112;-42
2023/11/21 00:56:02;;;;;;;12.60;7.45;;;;;;;8.78;100.00;99763.41;5112031;28;20044;-42
2023/11/21 00:58:31;;;;;;;15.07;8.40;;;;;;;8.71;100.00;99755.88;5111850;28;20393;-42
2023/11/21 01:00:59;;;;;;;12.55;7.43;;;;;;;8.63;100.00;99756.34;5112091;28;20039;-43
2023/11/21 01:03:28;;;;;;;13.23;8.13;;;;;;;8.62;100.00;99767.91;5111743;28;20047;-41
2023/11/21 01:05:56;;;;;;;15.55;7.80;;;;;;;8.53;100.00;99766.66;5112092;28;20070;-42
2023/11/21 01:08:26;;;;;;;14.35;7.93;;;;;;;8.45;100.00;99765.41;5111965;28;20052;-42
2023/11/21 01:10:55;;;;;;;15.13;8.38;;;;;;;8.51;100.00;99762.38;5112196;28;20128;-42
2023/11/21 01:13:23;;;;;;;13.60;8.20;;;;;;;8.44;100.00;99753.91;5111764;28;20043;-42
2023/11/21 01:15:51;;;;;;;18.83;8.23;;;;;;;8.43;100.00;99740.72;5112057;28;20104;-42
2023/11/21 01:18:20;;;;;;;14.00;7.65;;;;;;;8.46;100.00;99749.34;5111783;28;20054;-42
2023/11/21 01:20:48;;;;;;;13.95;7.65;;;;;;;8.53;100.00;99748.06;5111676;28;20050;-43
2023/11/21 01:23:16;;;;;;;15.82;8.02;;;;;;;8.60;100.00;99743.22;5111569;28;20555;-45
2023/11/21 01:25:46;;;;;;;14.43;7.43;;;;;;;8.63;100.00;99745.69;5111640;28;20039;-43
2023/11/21 01:28:14;;;;;;;15.32;7.82;;;;;;;8.65;100.00;99741.13;5111410;28;20056;-43
2023/11/21 01:30:44;;;;;;;14.90;7.63;;;;;;;8.64;100.00;99739.44;5111670;28;20052;-42
2023/11/21 01:33:13;;;;;;;13.73;7.05;;;;;;;8.67;100.00;99727.75;5111734;28;20408;-41
2023/11/21 01:35:41;;;;;;;13.80;7.90;;;;;;;8.66;100.00;99731.34;5111564;28;20043;-42
2023/11/21 01:38:09;;;;;;;13.45;7.75;;;;;;;8.59;100.00;99726.44;5111536;28;20054;-42
2023/11/21 01:40:38;;;;;;;15.13;7.22;;;;;;;8.59;100.00;99728.22;5111353;28;20052;-42
2023/11/21 01:43:08;;;;;;;14.48;7.55;;;;;;;8.59;100.00;99721.13;5111372;28;20528;-43
2023/11/21 01:45:36;;;;;;;12.68;6.82;;;;;;;8.55;100.00;99727.53;5111547;28;20047;-42
2023/11/21 01:48:06;;;;;;;14.05;7.75;;;;;;;8.47;100.00;99727.16;5111462;28;20051;-42
2023/11/21 01:50:38;;;;;;;19.13;8.00;;;;;;;8.50;100.00;99726.13;5111306;28;20425;-42
2023/11/21 01:53:06;;;;;;;14.75;7.18;;;;;;;8.43;100.00;99725.63;5111212;28;20048;-43
2023/11/21 01:55:35;;;;;;;15.57;7.30;;;;;;;8.42;100.00;99728.38;5111547;28;20121;-42
2023/11/21 01:58:04;;;;;;;12.27;7.18;;;;;;;8.31;100.00;99715.69;5111350;28;20086;-43
2023/11/21 02:00:34;;;;;;;15.88;7.75;;;;;;;8.41;100.00;99716.03;5111535;28;20109;-42
2023/11/21 02:03:03;;;;;;;13.75;7.80;;;;;;;8.37;100.00;99710.03;5111659;28;20405;-42
2023/11/21 02:05:32;;;;;;;14.00;7.88;;;;;;;8.35;100.00;99709.28;5113688;28;20385;-41
2023/11/21 02:08:02;;;;;;;12.63;6.97;;;;;;;8.34;100.00;99710.19;5115486;28;20413;-43
2023/11/21 02:10:32;;;;;;;16.45;8.15;;;;;;;8.27;100.00;99703.53;5115017;28;20111;-43
2023/11/21 02:13:02;;;;;;;15.73;7.40;;;;;;;8.31;100.00;99705.94;5115286;28;20372;-41
2023/11/21 02:15:31;;;;;;;13.73;7.32;;;;;;;8.34;100.00;99699.56;5114954;28;20093;-43
2023/11/21 02:18:03;;;;;;;16.52;7.43;;;;;;;8.22;100.00;99701.16;5114809;28;20505;-42
2023/11/21 02:20:34;;;;;;;14.73;8.55;;;;;;;8.24;100.00;99693.09;5114977;28;20047;-41
2023/11/21 02:23:04;;;;;;;14.65;7.85;;;;;;;8.22;100.00;99702.97;5115065;28;20047;-46
2023/11/21 02:25:35;;;;;;;13.23;7.40;;;;;;;8.27;100.00;99687.59;5114920;28;20050;-42
2023/11/21 02:28:04;;;;;;;13.93;7.70;;;;;;;8.24;100.00;99693.09;5114697;28;20039;-42
2023/11/21 02:30:33;;;;;;;11.93;7.38;;;;;;;8.23;100.00;99691.38;5114544;28;20046;-43
2023/11/21 02:33:02;;;;;;;12.52;7.78;;;;;;;8.28;100.00;99694.59;5115067;28;20100;-42
2023/11/21 02:35:31;;;;;;;15.05;7.95;;;;;;;8.23;100.00;99697.56;5114945;28;20047;-44
2023/11/21 02:38:00;;;;;;;13.75;7.43;;;;;;;8.24;100.00;99693.09;5114703;28;20035;-43
2023/11/21 02:40:31;;;;;;;15.40;7.55;;;;;;;8.18;100.00;99693.44;5114683;28;20062;-42
2023/11/21 02:42:59;;;;;;;15.32;7.55;;;;;;;8.21;100.00;99687.97;5114564;28;20143;-42
2023/11/21 02:45:28;;;;;;;13.52;7.38;;;;;;;8.22;100.00;99687.03;5114567;28;20047;-42
2023/11/21 02:47:56;;;;;;;14.77;7.97;;;;;;;8.03;100.00;99695.22;5114557;28;20483;-42
2023/11/21 02:50:26;;;;;;;17.58;8.45;;;;;;;8.01;100.00;99697.13;5114547;28;20039;-41
2023/11/21 02:52:57;;;;;;;16.75;8.00;;;;;;;7.98;100.00;99692.81;5114311;28;20047;-43
2023/11/21 02:55:26;;;;;;;15.70;8.15;;;;;;;7.93;100.00;99686.94;5114726;28;20068;-47
2023/11/21 02:57:57;;;;;;;13.80;7.97;;;;;;;7.78;100.00;99689.59;5114224;28;20043;-42
2023/11/21 03:00:26;;;;;;;14.10;7.55;;;;;;;7.81;100.00;99695.59;5114355;28;20054;-43
2023/11/21 03:02:56;;;;;;;16.73;8.10;;;;;;;7.84;100.00;99691.91;5114200;28;20113;-42
2023/11/21 03:05:25;;;;;;;14.23;8.10;;;;;;;7.92;100.00;99687.03;5113830;28;20073;-41
2023/11/21 03:07:53;;;;;;;14.10;8.73;;;;;;;7.91;100.00;99680.84;5113941;28;20404;-42
2023/11/21 03:10:22;;;;;;;15.48;8.68;;;;;;;7.94;100.00;99675.34;5113818;28;20089;-42
2023/11/21 03:12:50;;;;;;;17.33;8.80;;;;;;;7.83;100.00;99675.13;5114019;28;20056;-42
2023/11/21 03:15:20;;;;;;;13.93;8.20;;;;;;;7.63;100.00;99670.97;5113550;28;20143;-42
2023/11/21 03:17:49;;;;;;;15.48;8.82;;;;;;;7.72;100.00;99665.13;5113928;28;20047;-41
2023/11/21 03:20:18;;;;;;;15.18;8.63;;;;;;;7.72;100.00;99661.59;5113799;28;20054;-42
2023/11/21 03:22:46;;;;;;;17.77;8.80;;;;;;;7.74;100.00;99660.59;5113746;28;20416;-43
2023/11/21 03:25:17;;;;;;;15.80;8.55;;;;;;;7.78;100.00;99637.34;5113550;28;20048;-43
2023/11/21 03:27:45;;;;;;;18.35;9.68;;;;;;;7.63;100.00;99648.88;5113565;28;20048;-42
2023/11/21 03:30:14;;;;;;;17.15;9.43;;;;;;;7.67;100.00;99650.41;5113496;28;20083;-42
2023/11/21 03:32:43;;;;;;;16.92;9.00;;;;;;;7.56;100.00;99651.03;5113386;28;20136;-42
2023/11/21 03:35:12;;;;;;;18.20;10.13;;;;;;;7.26;100.00;99645.66;5113461;28;20039;-41
2023/11/21 03:37:41;;;;;;;16.23;10.10;;;;;;;7.44;100.00;99641.97;5113168;28;20048;-45
2023/11/21 03:40:12;;;;;;;18.40;10.52;;;;;;;7.59;100.00;99642.03;5113472;28;20048;-43
2023/11/21 03:42:41;;;;;;;22.52;12.15;;;;;;;7.36;100.00;99641.56;5113372;28;20244;-42
2023/11/21 03:45:12;;;;;;;20.02;12.43;;;;;;;7.07;100.00;99639.69;5113103;28;20606;-42
2023/11/21 03:47:41;;;;;;;22.75;14.38;;;;;;;6.82;100.00;99635.69;5113425;28;20241;-42
2023/11/21 03:50:11;;;;;;;23.40;14.18;;;;;;;6.74;100.00;99629.97;5112944;28;20150;-43
2023/11/21 03:52:39;;;;;;;27.83;15.60;;;;;;;6.87;100.00;99628.38;5113139;28;20073;-42
2023/11/21 03:55:09;;;;;;;28.05;15.98;;;;;;;6.81;100.00;99623.38;5113080;28;20428;-42
2023/11/21 03:57:38;;;;;;;28.00;16.60;;;;;;;6.99;100.00;99633.94;5112984;28;20054;-42
2023/11/21 04:00:10;;;;;;;29.60;17.35;;;;;;;7.13;100.00;99631.34;5112839;28;20499;-41
2023/11/21 04:02:39;;;;;;;29.00;17.65;;;;;;;7.29;100.00;99634.88;5112847;28;20049;-41
2023/11/21 04:05:09;;;;;;;29.45;17.52;;;;;;;7.21;100.00;99647.69;5133333;27;20051;-42
2023/11/21 04:07:39;;;;;;;30.40;17.30;;;;;;;7.32;100.00;99640.00;5133538;27;20408;-43
2023/11/21 04:10:09;;;;;;;26.98;17.40;;;;;;;7.38;100.00;99636.16;5133278;27;20078;-43
2023/11/21 04:12:38;;;;;;;31.08;17.98;;;;;;;7.40;100.00;99637.75;5133239;27;20103;-42
2023/11/21 04:15:08;;;;;;;30.35;17.73;;;;;;;7.38;100.00;99644.97;5133171;27;20047;-43
2023/11/21 04:17:37;;;;;;;27.90;17.35;;;;;;;7.32;100.00;99653.25;5133259;27;20395;-42
2023/11/21 04:20:08;;;;;;;31.65;17.65;;;;;;;7.41;100.00;99670.47;5132933;27;20079;-42
2023/11/21 04:22:43;;;;;;;30.13;18.70;;;;;;;7.26;100.00;99682.81;5133330;27;20089;-42
2023/11/21 04:25:15;;;;;;;27.40;17.90;;;;;;;7.25;100.00;99686.41;5133118;27;20039;-42
2023/11/21 04:27:45;;;;;;;34.45;19.02;;;;;;;7.36;100.00;99686.66;5131995;27;20055;-41
2023/11/21 04:30:15;;;;;;;31.00;18.85;;;;;;;7.29;100.00;99684.41;5133178;27;20047;-42
2023/11/21 04:32:44;;;;;;;29.33;18.42;;;;;;;7.02;100.00;99669.09;5132872;27;20183;-43
2023/11/21 04:35:12;;;;;;;30.35;18.13;;;;;;;6.87;100.00;99669.94;5133020;27;20410;-44
2023/11/21 04:37:42;;;;;;;28.02;19.05;;;;;;;6.93;100.00;99664.28;5132963;27;20408;-42
2023/11/21 04:40:12;;;;;;;30.38;17.50;;;;;;;7.09;100.00;99672.25;5133024;27;20043;-43
2023/11/21 04:42:40;;;;;;;28.42;17.17;;;;;;;7.23;100.00;99666.19;5133059;27;20071;-42
2023/11/21 04:45:11;;;;;;;26.10;17.02;;;;;;;7.18;100.00;99675.25;5132884;27;20096;-44
2023/11/21 04:47:40;;;;;;;26.50;17.00;;;;;;;7.29;100.00;99677.31;5132683;27;20043;-42
2023/11/21 04:50:09;;;;;;;30.08;18.15;;;;;;;7.32;100.00;99678.94;5132460;27;20043;-43
2023/11/21 04:52:38;;;;;;;29.25;17.00;;;;;;;7.36;100.00;99688.44;5132338;27;20098;-42
2023/11/21 04:55:10;;;;;;;29.58;16.75;;;;;;;7.44;100.00;99687.09;5132262;27;20488;-43
2023/11/21 04:57:41;;;;;;;26.60;16.67;;;;;;;7.49;100.00;99693.91;5132577;27;20130;-42
2023/11/21 05:00:12;;;;;;;26.52;15.90;;;;;;;7.36;100.00;99696.41;5132550;27;20337;-42
2023/11/21 05:02:41;;;;;;;26.67;16.45;;;;;;;7.51;100.00;99692.03;5132449;27;20480;-42
2023/11/21 05:05:10;;;;;;;27.35;15.48;;;;;;;7.59;100.00;99701.28;5132433;27;20054;-42
2023/11/21 05:07:40;;;;;;;28.35;15.57;;;;;;;7.64;100.00;99698.38;5132364;27;20048;-43
2023/11/21 05:10:11;;;;;;;26.67;15.52;;;;;;;7.63;100.00;99708.13;5132092;27;20452;-42
2023/11/21 05:12:41;;;;;;;26.08;14.93;;;;;;;7.64;100.00;99714.31;5131822;27;20054;-43
2023/11/21 05:15:12;;;;;;;26.70;14.93;;;;;;;7.71;100.00;99710.31;5132086;27;20047;-42
2023/11/21 05:17:42;;;;;;;24.63;14.88;;;;;;;7.83;100.00;99719.41;5131818;27;20049;-42
2023/11/21 05:20:13;;;;;;;25.27;14.75;;;;;;;7.90;100.00;99716.28;5132403;28;20330;-41
2023/11/21 05:22:42;;;;;;;27.25;15.13;;;;;;;7.88;100.00;99707.56;5132244;28;20051;-41
2023/11/21 05:25:12;;;;;;;23.95;15.30;;;;;;;7.89;100.00;99703.97;5132130;28;20087;-41
2023/11/21 05:27:41;;;;;;;25.65;14.63;;;;;;;7.87;100.00;99697.91;5132004;28;20440;-42
2023/11/21 05:30:12;;;;;;;25.92;14.73;;;;;;;7.75;100.00;99693.31;5132161;28;20043;-42
2023/11/21 05:32:42;;;;;;;23.80;13.57;;;;;;;7.70;100.00;99688.25;5132310;28;20043;-42
2023/11/21 05:35:15;;;;;;;21.65;14.23;;;;;;;7.68;100.00;99689.28;5132403;28;20122;-43
2023/11/21 05:37:45;;;;;;;23.08;13.88;;;;;;;7.78;100.00;99690.47;5132020;28;20065;-43
2023/11/21 05:40:14;;;;;;;21.25;13.73;;;;;;;7.78;100.00;99686.94;5135821;27;20141;-42
2023/11/21 05:42:43;;;;;;;22.77;13.38;;;;;;;7.87;100.00;99695.25;5136112;27;20047;-43
2023/11/21 05:45:11;;;;;;;26.10;14.80;;;;;;;8.03;100.00;99701.38;5136129;27;20058;-43
2023/11/21 05:47:42;;;;;;;24.58;14.27;;;;;;;8.08;100.00;99701.09;5136163;27;20047;-41
2023/11/21 05:50:14;;;;;;;24.23;13.95;;;;;;;8.01;100.00;99689.16;5136303;27;20435;-44
2023/11/21 05:52:43;;;;;;;24.95;13.40;;;;;;;8.07;100.00;99696.72;5136009;27;20047;-42
2023/11/21 05:55:11;;;;;;;22.92;13.18;;;;;;;8.09;100.00;99689.53;5135883;27;20484;-41
2023/11/21 05:57:44;;;;;;;24.95;13.98;;;;;;;8.06;100.00;99700.34;5135779;27;20476;-42
2023/11/21 06:00:15;;;;;;;25.20;12.93;;;;;;;8.09;100.00;99700.16;5136004;27;20104;-43
2023/11/21 06:02:44;;;;;;;21.83;12.18;;;;;;;8.07;100.00;99695.88;5135589;27;20504;-41
2023/11/21 06:05:12;;;;;;;20.27;12.57;;;;;;;8.10;100.00;99701.00;5135769;27;20070;-42
2023/11/21 06:07:41;;;;;;;24.60;12.65;;;;;;;8.17;100.00;99716.50;5135778;27;20080;-43
2023/11/21 06:10:11;;;;;;;20.17;11.55;;;;;;;8.20;100.00;99723.44;5135490;27;20152;-42
2023/11/21 06:12:40;;;;;;;30.60;12.30;;;;;;;8.23;100.00;99739.22;5135787;27;20047;-43
2023/11/21 06:15:13;;;;;;;28.42;11.73;;;;;;;8.24;100.00;99751.53;5135696;27;20075;-42
2023/11/21 06:17:44;;;;;;;18.33;10.93;;;;;;;8.25;100.00;99748.78;5135658;27;20059;-42
2023/11/21 06:20:14;;;;;;;22.27;11.25;;;;;;;8.28;100.00;99753.06;5135511;27;20046;-43
2023/11/21 06:22:43;;;;;;;22.48;10.25;;;;;;;8.26;100.00;99762.94;5135260;27;20047;-42
2023/11/21 06:25:14;;;;;;;17.70;9.60;;;;;;;8.31;100.00;99750.25;5135546;27;20047;-43
2023/11/21 06:27:44;;;;;;;15.73;9.63;;;;;;;8.30;100.00;99751.19;5135170;27;20443;-43
2023/11/21 06:30:15;;;;;;;19.45;9.25;;;;;;;8.30;100.00;99756.50;5135578;27;20047;-41
2023/11/21 06:32:45;;;;;;;19.10;9.45;;;;;;;8.38;100.00;99769.34;5135165;27;20240;-42
2023/11/21 06:35:15;;;;;;;16.23;8.63;;;;;;;8.41;100.00;99775.38;5134930;27;20074;-42
2023/11/21 06:37:47;;;;;;;16.73;9.63;;;;;;;8.38;100.00;99786.16;5135002;27;20051;-42
2023/11/21 06:40:18;;;;;;;15.85;8.82;;;;;;;8.28;100.00;99784.94;5135394;27;20385;-43
2023/11/21 06:42:47;;;;;;;18.85;8.80;;;;;;;8.13;100.00;99780.53;5135322;27;20039;-42
2023/11/21 06:45:18;;;;;;;17.15;8.93;;;;;;;8.20;100.00;99789.84;5135092;27;20050;-42
2023/11/21 06:47:46;;;;;;;16.10;8.80;;;;;;;8.35;100.00;99786.34;5134460;27;20039;-42
2023/11/21 06:50:15;;;;;;;17.85;8.50;;;;;;;8.35;100.00;99798.78;5134143;27;20040;-42
2023/11/21 06:52:44;;;;;;;15.25;7.72;;;;;;;8.44;100.00;99796.44;5134829;27;20082;-41
2023/11/21 06:55:13;;;;;;;16.55;8.13;;;;;;;8.45;100.00;99797.28;5135014;27;20050;-41
2023/11/21 06:57:41;;;;;;;19.02;7.93;;;;;;;8.51;100.00;99797.81;5134594;27;20512;-43
2023/11/21 07:00:11;;;;;;;19.17;8.73;;;;;;;8.51;100.00;99797.81;5134673;27;20325;-42
2023/11/21 07:02:41;;;;;;;15.50;8.25;;;;;;;8.55;100.00;99787.84;5134599;27;20096;-42
2023/11/21 07:05:09;;;;;;;17.48;7.78;;;;;;;8.58;100.00;99795.63;5134774;27;20051;-42
2023/11/21 07:07:38;;;;;;;22.48;9.23;;;;;;;8.57;100.00;99800.06;5134654;27;20058;-43
2023/11/21 07:10:07;;;;;;;18.15;8.88;;;;;;;8.67;100.00;99802.19;5134181;27;20496;-42
2023/11/21 07:12:35;;;;;;;16.45;8.82;;;;;;;8.72;100.00;99806.31;5134761;27;20047;-45
2023/11/21 07:15:05;;;;;;;17.52;9.05;;;;;;;8.74;100.00;99809.72;5134253;27;20134;-41
2023/11/21 07:17:35;;;;;;;23.77;9.02;;;;;;;8.76;100.00;99809.63;5133254;27;20043;-41
2023/11/21 07:20:10;;;;;;;18.92;9.13;;;;;;;8.75;100.00;99811.44;5134775;27;20039;-48
2023/11/21 07:22:39;;;;;;;42.15;21.02;;;;;;;8.76;100.00;99812.28;5135449;27;20057;-42
2023/11/21 07:25:09;;;;;;;71.47;33.97;;;;;;;8.85;100.00;99819.72;5135161;27;20082;-41
2023/11/21 07:27:37;;;;;;;34.78;17.23;;;;;;;8.84;100.00;99815.34;5135238;27;20055;-43
2023/11/21 07:30:09;;;;;;;21.15;11.07;;;;;;;8.87;100.00;99815.16;5134882;27;20067;-43
2023/11/21 07:32:39;;;;;;;18.38;10.43;;;;;;;8.94;100.00;99805.88;5133945;27;20413;-43
2023/11/21 07:35:10;;;;;;;19.45;10.20;;;;;;;8.95;100.00;99812.03;5132776;27;20521;-43
2023/11/21 07:37:38;;;;;;;18.48;9.85;;;;;;;9.00;100.00;99810.81;5122320;27;20469;-42
2023/11/21 07:40:09;;;;;;;19.05;10.20;;;;;;;9.00;100.00;99804.66;5123297;27;20058;-42
2023/11/21 07:42:38;;;;;;;18.02;9.20;;;;;;;9.04;100.00;99808.81;5122264;27;20047;-41
2023/11/21 07:45:08;;;;;;;18.98;9.27;;;;;;;9.13;100.00;99811.78;5121330;27;20093;-41
2023/11/21 07:47:36;;;;;;;15.98;8.45;;;;;;;9.21;100.00;99810.47;5113282;28;20083;-43
2023/11/21 07:50:07;;;;;;;15.98;8.57;;;;;;;9.27;100.00;99818.06;5113508;28;20126;-43
2023/11/21 07:52:40;;;;;;;23.48;8.63;;;;;;;9.31;100.00;99817.78;5127824;27;20083;-42
2023/11/21 07:55:08;;;;;;;13.30;8.67;;;;;;;9.31;100.00;99815.13;5133539;27;20047;-42
2023/11/21 07:57:37;;;;;;;19.40;7.65;;;;;;;9.32;100.00;99810.66;5124543;27;20135;-42
2023/11/21 08:00:09;;;;;;;18.38;7.95;;;;;;;9.43;100.00;99816.16;5132321;27;20047;-40
2023/11/21 08:02:37;;;;;;;19.73;8.03;;;;;;;9.42;100.00;99812.63;5130774;27;20054;-42
2023/11/21 08:05:06;;;;;;;17.90;8.20;;;;;;;9.48;100.00;99814.06;5112840;28;20427;-44
2023/11/21 08:07:43;;;;;;;23.60;9.90;;;;;;;9.37;100.00;99819.22;5113196;28;20043;-42
2023/11/21 08:10:11;;;;;;;20.10;10.43;;;;;;;9.43;100.00;99813.50;5113039;28;20044;-43
2023/11/21 08:12:40;;;;;;;21.40;9.57;;;;;;;9.26;100.00;99811.88;5125759;27;20130;-42
2023/11/21 08:15:09;;;;;;;22.55;10.10;;;;;;;9.28;100.00;99811.81;5133130;27;20609;-42
2023/11/21 08:17:37;;;;;;;19.40;9.15;;;;;;;9.16;100.00;99806.25;5133070;27;20039;-42
2023/11/21 08:20:08;;;;;;;19.65;9.05;;;;;;;9.26;100.00;99811.00;5133441;27;20043;-42
2023/11/21 08:22:37;;;;;;;16.63;8.15;;;;;;;9.44;100.00;99804.56;5133162;27;20463;-44
2023/11/21 08:25:17;;;;;;;17.00;8.48;;;;;;;9.54;100.00;99803.03;5109249;27;20404;-42
2023/11/21 08:27:45;;;;;;;17.95;8.35;;;;;;;9.44;100.00;99799.22;5109090;28;20047;-41
2023/11/21 08:30:16;;;;;;;18.17;8.30;;;;;;;9.56;100.00;99800.28;5109065;28;20146;-44
2023/11/21 08:32:45;;;;;;;16.05;7.90;;;;;;;9.64;100.00;99795.31;5109278;28;20047;-42
2023/11/21 08:35:13;;;;;;;18.08;8.60;;;;;;;9.73;100.00;99795.56;5109146;28;20044;-42
2023/11/21 08:37:42;;;;;;;17.38;7.90;;;;;;;9.78;100.00;99795.31;5109046;28;20044;-41
2023/11/21 08:40:16;;;;;;;20.50;8.10;;;;;;;9.77;100.00;99798.06;5108865;28;20451;-45
2023/11/21 08:42:46;;;;;;;20.27;8.13;;;;;;;9.85;100.00;99787.78;5108902;28;20082;-41
2023/11/21 08:45:15;;;;;;;22.23;8.70;;;;;;;9.87;100.00;99788.53;5108983;28;20055;-42
2023/11/21 08:47:44;;;;;;;19.05;8.30;;;;;;;9.92;100.00;99789.91;5108868;28;20373;-43
2023/11/21 08:50:13;;;;;;;15.85;8.25;;;;;;;9.92;100.00;99784.59;5108704;28;20050;-42
2023/11/21 08:52:42;;;;;;;16.77;8.15;;;;;;;9.88;100.00;99790.25;5108127;28;20083;-42
2023/11/21 08:55:12;;;;;;;18.02;9.00;;;;;;;9.88;100.00;99790.25;5108770;28;20108;-41
2023/11/21 08:57:41;;;;;;;21.55;9.43;;;;;;;9.88;100.00;99792.91;5091911;28;20044;-49
2023/11/21 09:00:12;;;;;;;20.50;9.30;;;;;;;9.91;100.00;99793.53;5088386;28;20052;-43
2023/11/21 09:02:41;;;;;;;19.25;9.20;;;;;;;9.96;100.00;99796.78;5095479;28;20055;-42
2023/11/21 09:05:13;;;;;;;18.63;9.23;;;;;;;9.95;100.00;99800.41;5108549;28;20052;-42
2023/11/21 09:07:43;;;;;;;21.23;10.18;;;;;;;10.00;100.00;99802.75;5088111;28;20060;-43
2023/11/21 09:10:11;;;;;;;20.85;10.05;;;;;;;10.02;100.00;99800.84;5088275;28;20152;-42
2023/11/21 09:12:39;;;;;;;19.90;9.95;;;;;;;10.02;100.00;99800.84;5090114;28;20054;-42
2023/11/21 09:15:11;;;;;;;19.15;10.20;;;;;;;10.08;100.00;99792.47;5090728;28;20048;-43
2023/11/21 09:17:42;;;;;;;23.20;9.40;;;;;;;10.10;100.00;99782.53;5087862;28;20128;-42
2023/11/21 09:20:11;;;;;;;24.52;10.48;;;;;;;10.13;100.00;99778.81;5094522;28;20509;-43
2023/11/21 09:22:40;;;;;;;19.75;10.10;;;;;;;10.18;100.00;99782.06;5108384;28;20051;-42
2023/11/21 09:25:09;;;;;;;24.88;10.35;;;;;;;10.20;100.00;99782.78;5108108;28;20060;-49
2023/11/21 09:27:37;;;;;;;23.17;10.30;;;;;;;10.22;100.00;99776.44;5108297;28;20040;-42
2023/11/21 09:30:09;;;;;;;21.25;9.98;;;;;;;10.28;100.00;99775.19;5108263;28;20055;-42
2023/11/21 09:32:40;;;;;;;18.85;9.68;;;;;;;10.34;100.00;99771.28;5108153;28;20082;-43
2023/11/21 09:35:11;;;;;;;22.98;9.52;;;;;;;10.35;100.00;99776.50;5102233;28;20043;-42
2023/11/21 09:37:39;;;;;;;20.38;9.32;;;;;;;10.40;100.00;99766.34;5094509;28;20123;-42
2023/11/21 09:40:13;;;;;;;19.58;10.23;;;;;;;10.41;100.00;99759.22;5094443;28;20055;-46
2023/11/21 09:42:45;;;;;;;;;;;;;;;10.34;100.00;99757.94;5085559;28;20044;-42
2023/11/21 09:45:21;;;;;;;17.80;9.82;;;;;;;10.40;100.00;99755.69;5093989;28;21260;-42
2023/11/21 09:47:53;;;;;;;20.10;10.07;;;;;;;10.25;100.00;99751.41;5094008;28;20134;-42
2023/11/21 09:50:24;;;;;;;25.47;10.10;;;;;;;10.29;100.00;99763.56;5093997;28;20555;-43
2023/11/21 09:52:58;;;;;;;25.10;10.85;;;;;;;10.31;100.00;99749.16;5094154;28;20160;-41
2023/11/21 09:55:29;;;;;;;23.23;11.82;;;;;;;10.30;100.00;99752.78;5093996;28;20443;-41
2023/11/21 09:57:58;;;;;;;29.80;11.93;;;;;;;10.39;100.00;99740.66;5093671;28;20411;-41
2023/11/21 10:00:27;;;;;;;25.60;12.23;;;;;;;10.44;100.00;99749.22;5093887;28;20044;-41
2023/11/21 10:02:58;;;;;;;24.30;11.73;;;;;;;10.40;100.00;99753.03;5093699;28;20046;-42
2023/11/21 10:05:28;;;;;;;23.77;11.35;;;;;;;10.17;100.00;99751.88;5093503;28;20105;-43
2023/11/21 10:07:58;;;;;;;30.75;11.80;;;;;;;10.23;100.00;99750.63;5093823;28;20108;-41
2023/11/21 10:10:28;;;;;;;27.77;12.00;;;;;;;10.26;100.00;99745.97;5093928;28;20416;-42
2023/11/21 10:12:58;;;;;;;27.40;12.20;;;;;;;10.35;100.00;99738.31;5093411;28;20400;-45
2023/11/21 10:15:26;;;;;;;29.65;11.93;;;;;;;10.49;100.00;99740.88;5093606;28;20044;-41
2023/11/21 10:17:56;;;;;;;24.67;11.77;;;;;;;10.53;100.00;99740.59;5093414;28;20072;-43
2023/11/21 10:20:25;;;;;;;26.38;12.65;;;;;;;10.28;100.00;99746.72;5093488;28;20044;-43
2023/11/21 10:22:56;;;;;;;29.08;12.55;;;;;;;10.32;100.00;99745.53;5093158;28;20128;-41
2023/11/21 10:25:25;;;;;;;28.15;13.43;;;;;;;10.43;100.00;99733.31;5093226;28;20055;-41
2023/11/21 10:28:00;;;;;;;28.50;12.07;;;;;;;10.57;100.00;99727.91;5093394;28;20048;-41
2023/11/21 10:30:32;;;;;;;30.60;12.70;;;;;;;10.62;100.00;99724.94;5093472;28;20159;-43
2023/11/21 10:33:02;;;;;;;25.25;11.10;;;;;;;10.61;100.00;99718.72;5093137;28;20060;-42
2023/11/21 10:35:46;;;;;;;25.42;9.88;;;;;;;10.65;100.00;99722.91;5092923;28;20094;-44
2023/11/21 10:38:16;;;;;;;23.65;12.07;;;;;;;10.71;100.00;99724.25;5093266;28;20122;-42
2023/11/21 10:40:46;;;;;;;25.98;11.40;;;;;;;10.80;100.00;99720.97;5092828;28;20585;-41
2023/11/21 10:43:15;;;;;;;27.30;11.38;;;;;;;10.79;100.00;99719.25;5092949;28;20549;-41
2023/11/21 10:45:44;;;;;;;29.02;11.85;;;;;;;10.81;100.00;99718.22;5092650;28;20131;-43
2023/11/21 10:48:16;;;;;;;29.50;12.20;;;;;;;10.85;100.00;99732.19;5091802;28;20201;-43
2023/11/21 10:50:46;;;;;;;27.40;11.68;;;;;;;10.98;100.00;99733.03;5092781;28;20044;-42
2023/11/21 10:53:16;;;;;;;25.75;11.63;;;;;;;10.99;100.00;99732.06;5088206;28;20047;-42
2023/11/21 10:55:44;;;;;;;25.95;11.45;;;;;;;11.05;100.00;99722.78;5072972;28;20213;-43
2023/11/21 10:58:15;;;;;;;23.08;11.10;;;;;;;10.98;100.00;99716.16;5075489;28;20104;-42
2023/11/21 11:00:45;;;;;;;20.55;9.60;;;;;;;10.91;100.00;99726.44;5072027;28;20451;-42
2023/11/21 11:03:14;;;;;;;21.77;9.38;;;;;;;11.05;100.00;99725.44;5072486;28;20080;-43
2023/11/21 11:05:51;;;;;;;26.55;9.98;;;;;;;11.05;100.00;99722.78;5072260;28;20406;-42
2023/11/21 11:08:26;;;;;;;21.38;8.75;;;;;;;11.05;100.00;99728.13;5080816;28;20036;-42
2023/11/21 11:10:58;;;;;;;19.45;8.38;;;;;;;11.11;100.00;99719.69;5092554;28;20047;-41
2023/11/21 11:13:26;;;;;;;17.67;7.90;;;;;;;10.97;100.00;99719.78;5092232;28;20166;-42
2023/11/21 11:16:01;;;;;;;17.35;7.82;;;;;;;11.08;100.00;99718.06;5092586;28;20043;-43
2023/11/21 11:18:30;;;;;;;20.08;8.85;;;;;;;11.14;100.00;99714.13;5092543;28;20075;-41
2023/11/21 11:21:08;;;;;;;19.52;8.63;;;;;;;11.17;100.00;99712.09;5092381;28;20043;-44
2023/11/21 11:23:57;;;;;;;18.10;8.00;;;;;;;11.17;100.00;99711.22;5092161;28;20490;-42
2023/11/21 11:26:38;;;;;;;17.92;8.25;;;;;;;11.14;100.00;99708.78;5092396;28;20687;-42
2023/11/21 11:29:15;;;;;;;20.63;8.40;;;;;;;11.14;100.00;99708.78;5092090;28;20082;-42
2023/11/21 11:31:55;;;;;;;17.67;7.45;;;;;;;11.22;100.00;99705.59;5089185;28;20044;-42